Nyborg, Denmark
Current Conditions -  °F | °C
As of 9:50 AM on Wednesday 26 Nov 2014 (Local Time) from EKOD Reporting Station
Broken Clouds Broken Clouds  
Wind Chill: 41°   Ceiling: 2100
Heat Index: 45°   Visibility: 6mi
Dew Point: 43°   Wind: 6mph
Humidity: 93%   Direction: 120°ESE
Pressure: 30.27"   Gusts: NA
Location:  55.31°N, 10.79°E
Report Text: EKOD 260850Z 12005KT 9999 BKN021 07/06 Q1025
Loading
Personal Weather Stations






























Interactive Weather Map New forecast layout! Learn more

10-Day Weather Forecast

Advertisements
Track Severe Weather on mobile